Time;durP1;ratioP1;P1;durP2;ratioP2;P2;SDS_P1;SDS_P2;PMS_P1;PMS_P2;Temp;Humidity;BMP_temperature;BMP_pressure;BME280_temperature;BME280_humidity;BME280_pressure;Samples;Min_cycle;Max_cycle;Signal;HPM_P1;HPM_P2
2022/07/08 00:01:09;;;;;;;9.25;2.42;;;;;;;14.89;72.40;102968.97;6211282;23;20005;-77
2022/07/08 00:03:35;;;;;;;9.57;2.47;;;;;;;14.91;72.60;102971.53;6210283;23;20193;-76
2022/07/08 00:06:00;;;;;;;11.75;2.72;;;;;;;14.84;72.73;102971.03;6211014;23;20354;-76
2022/07/08 00:08:27;;;;;;;11.65;2.78;;;;;;;14.89;72.49;102968.97;6184714;23;20004;-76
2022/07/08 00:10:52;;;;;;;12.75;2.90;;;;;;;14.84;72.52;102968.38;6209510;23;20004;-74
2022/07/08 00:13:18;;;;;;;9.32;2.47;;;;;;;14.75;72.74;102968.91;6183428;23;20333;-75
2022/07/08 00:15:43;;;;;;;10.75;2.90;;;;;;;14.82;72.88;102970.28;6209889;23;20012;-75
2022/07/08 00:18:08;;;;;;;11.73;2.55;;;;;;;14.81;72.69;102965.91;6211566;23;20557;-75
2022/07/08 00:20:34;;;;;;;14.23;3.75;;;;;;;14.74;73.32;102972.47;6210226;23;20008;-75
2022/07/08 00:22:59;;;;;;;10.15;2.53;;;;;;;14.72;73.30;102974.38;6185335;23;20043;-75
2022/07/08 00:25:24;;;;;;;10.65;2.50;;;;;;;14.69;73.73;102963.94;6210033;23;20084;-75
2022/07/08 00:27:50;;;;;;;14.60;3.00;;;;;;;14.68;73.94;102963.09;6184149;23;20005;-76
2022/07/08 00:30:18;;;;;;;9.32;2.78;;;;;;;14.67;73.56;102974.63;6211313;23;20047;-76
2022/07/08 00:32:45;;;;;;;12.75;3.00;;;;;;;14.60;74.07;102975.94;6210038;23;20001;-76
2022/07/08 00:35:11;;;;;;;10.20;2.70;;;;;;;14.64;74.39;102973.97;6210825;23;20055;-76
2022/07/08 00:37:37;;;;;;;9.65;2.50;;;;;;;14.61;74.60;102971.50;6210582;23;20004;-76
2022/07/08 00:40:03;;;;;;;11.98;2.88;;;;;;;14.58;74.31;102975.16;6184983;23;20451;-76
2022/07/08 00:42:29;;;;;;;12.98;2.80;;;;;;;14.57;74.54;102967.31;6209016;23;20004;-75
2022/07/08 00:44:55;;;;;;;14.77;3.10;;;;;;;14.52;75.02;102974.66;6211706;23;19997;-76
2022/07/08 00:47:20;;;;;;;8.75;2.50;;;;;;;14.52;74.93;102964.94;6211503;23;20000;-74
2022/07/08 00:49:46;;;;;;;13.00;3.28;;;;;;;14.45;74.57;102978.59;6212322;23;20007;-76
2022/07/08 00:52:21;;;;;;;12.98;2.80;;;;;;;14.35;74.99;102971.13;6212259;23;20004;-75
2022/07/08 00:54:47;;;;;;;10.05;3.25;;;;;;;14.32;75.21;102979.25;6212281;23;20099;-75
2022/07/08 00:57:17;;;;;;;8.45;2.75;;;;;;;14.26;75.42;102984.88;6184676;23;20079;-75
2022/07/08 00:59:43;;;;;;;11.90;2.85;;;;;;;14.20;75.77;102974.63;6211811;23;20004;-75
2022/07/08 01:02:08;;;;;;;11.90;2.90;;;;;;;14.08;76.14;102983.25;6185340;23;20023;-76
2022/07/08 01:04:34;;;;;;;6.75;2.50;;;;;;;14.08;76.58;102983.25;6184068;23;20024;-76
2022/07/08 01:07:00;;;;;;;10.82;2.95;;;;;;;14.00;76.60;102978.34;6211680;23;20131;-76
2022/07/08 01:09:25;;;;;;;13.05;3.22;;;;;;;13.99;76.93;102975.78;6158027;23;20012;-76
2022/07/08 01:11:51;;;;;;;11.82;3.00;;;;;;;13.92;77.19;102969.97;6184486;23;20348;-76
2022/07/08 01:14:20;;;;;;;14.35;2.90;;;;;;;13.88;76.77;102979.03;6210064;23;20008;-73
2022/07/08 01:16:45;;;;;;;10.32;3.13;;;;;;;13.78;77.29;102976.03;6183416;23;20001;-77
2022/07/08 01:19:11;;;;;;;10.00;2.75;;;;;;;13.76;77.48;102977.91;6211369;23;20005;-77
2022/07/08 01:21:36;;;;;;;13.07;3.30;;;;;;;13.72;77.80;102979.00;6183710;23;20005;-75
2022/07/08 01:24:02;;;;;;;8.93;2.90;;;;;;;13.69;77.82;102973.03;6210394;23;20039;-75
2022/07/08 01:26:28;;;;;;;12.75;3.47;;;;;;;13.59;78.14;102983.22;6183961;23;20010;-75
2022/07/08 01:28:54;;;;;;;9.20;3.10;;;;;;;13.59;78.16;102972.63;6211135;23;20218;-75
2022/07/08 01:31:19;;;;;;;11.25;3.20;;;;;;;13.54;78.22;102982.59;6208993;23;20011;-76
2022/07/08 01:33:45;;;;;;;14.45;3.17;;;;;;;13.47;78.44;102978.56;6211656;23;20001;-75
2022/07/08 01:36:10;;;;;;;9.13;2.78;;;;;;;13.48;78.67;102985.56;6183856;23;20485;-75
2022/07/08 01:38:36;;;;;;;13.98;3.10;;;;;;;13.45;78.82;102983.94;6208985;23;20309;-75
2022/07/08 01:41:01;;;;;;;14.93;3.53;;;;;;;13.29;78.87;102976.88;6184859;23;20080;-76
2022/07/08 01:43:26;;;;;;;12.18;3.25;;;;;;;13.23;79.16;102985.13;6209893;23;20431;-76
2022/07/08 01:45:52;;;;;;;10.77;3.08;;;;;;;13.16;79.83;102972.16;6210604;23;20501;-76
2022/07/08 01:48:17;;;;;;;9.85;3.28;;;;;;;13.21;79.88;102976.41;6183438;23;20038;-76
2022/07/08 01:50:42;;;;;;;8.63;3.17;;;;;;;13.14;79.39;102968.75;6185143;23;20008;-76
2022/07/08 01:53:08;;;;;;;12.68;3.25;;;;;;;13.06;80.08;102968.28;6210761;23;20004;-76
2022/07/08 01:55:33;;;;;;;10.07;3.40;;;;;;;12.97;80.31;102962.63;6183917;23;20322;-76
2022/07/08 01:57:58;;;;;;;11.63;3.90;;;;;;;12.92;80.59;102962.84;6212069;23;20005;-76
2022/07/08 02:00:24;;;;;;;14.57;3.67;;;;;;;12.88;80.92;102958.66;6210011;23;20032;-76
2022/07/08 02:02:49;;;;;;;13.90;3.80;;;;;;;12.85;80.79;102964.94;6211059;23;20480;-76
2022/07/08 02:05:14;;;;;;;11.77;3.53;;;;;;;12.79;81.24;102970.50;6211129;23;20008;-75
2022/07/08 02:07:40;;;;;;;8.32;3.55;;;;;;;12.77;81.52;102966.22;6183487;23;20000;-75
2022/07/08 02:10:07;;;;;;;9.23;3.50;;;;;;;12.78;81.90;102975.88;6183930;23;20074;-76
2022/07/08 02:12:33;;;;;;;12.02;3.50;;;;;;;12.80;82.06;102974.00;6208416;23;20005;-75
2022/07/08 02:15:03;;;;;;;11.30;3.63;;;;;;;12.80;82.18;102976.66;6183862;23;20095;-76
2022/07/08 02:17:34;;;;;;;11.25;3.75;;;;;;;12.81;81.97;102978.38;6209733;23;20000;-76
2022/07/08 02:20:00;;;;;;;13.60;3.35;;;;;;;12.81;82.29;102983.69;6210077;23;20012;-76
2022/07/08 02:22:26;;;;;;;14.82;3.97;;;;;;;12.82;81.83;102973.03;6209230;23;20004;-76
2022/07/08 02:24:52;;;;;;;10.88;3.33;;;;;;;12.84;82.59;102975.59;6210547;23;20004;-76
2022/07/08 02:27:18;;;;;;;10.75;3.17;;;;;;;12.82;82.74;102980.09;6208736;23;20008;-76
2022/07/08 02:29:44;;;;;;;11.45;3.35;;;;;;;12.81;82.95;102981.03;6210745;23;20346;-76
2022/07/08 02:32:13;;;;;;;14.10;3.85;;;;;;;12.81;82.43;102981.03;6211347;23;20004;-76
2022/07/08 02:34:39;;;;;;;11.68;3.35;;;;;;;12.90;82.03;102985.84;6208803;23;20051;-76
2022/07/08 02:37:04;;;;;;;9.73;3.58;;;;;;;12.89;82.71;102981.50;6210363;23;20009;-76
2022/07/08 02:39:31;;;;;;;9.90;3.20;;;;;;;12.92;82.67;102978.72;6210211;23;20430;-76
2022/07/08 02:41:56;;;;;;;11.00;3.38;;;;;;;12.89;82.69;102983.28;6209344;23;20478;-76
2022/07/08 02:44:23;;;;;;;10.73;3.30;;;;;;;12.89;82.77;102978.88;6210600;23;20076;-74
2022/07/08 02:46:48;;;;;;;8.73;3.30;;;;;;;12.86;83.02;102982.50;6209813;23;20015;-77
2022/07/08 02:49:17;;;;;;;8.48;3.40;;;;;;;12.89;82.61;102981.50;6211365;23;20000;-75
2022/07/08 02:51:43;;;;;;;9.52;3.35;;;;;;;12.89;82.63;102981.50;6211444;23;20031;-76
2022/07/08 02:54:08;;;;;;;10.18;3.40;;;;;;;12.94;82.70;102978.63;6211794;23;20425;-77
2022/07/08 02:56:35;;;;;;;10.95;3.42;;;;;;;12.87;82.53;102972.81;6210062;23;20465;-77
2022/07/08 02:59:01;;;;;;;10.73;3.25;;;;;;;12.82;82.67;102973.03;6209580;23;20011;-76
2022/07/08 03:01:27;;;;;;;10.50;3.55;;;;;;;12.77;82.91;102980.28;6210853;23;20008;-77
2022/07/08 03:03:52;;;;;;;11.52;3.22;;;;;;;12.75;82.92;102978.66;6209573;23;20044;-77
2022/07/08 03:06:18;;;;;;;10.27;3.30;;;;;;;12.73;82.86;102981.38;6211254;23;20418;-77
2022/07/08 03:08:44;;;;;;;17.13;3.65;;;;;;;12.70;83.60;102981.53;6209011;23;20407;-77
2022/07/08 03:11:09;;;;;;;9.80;3.28;;;;;;;12.70;83.36;102985.97;6182771;23;20001;-77
2022/07/08 03:13:38;;;;;;;10.40;3.92;;;;;;;12.72;83.73;102984.09;6209593;23;20287;-77
2022/07/08 03:16:07;;;;;;;9.02;3.17;;;;;;;12.70;83.85;102996.53;6209256;23;20007;-77
2022/07/08 03:18:34;;;;;;;11.23;3.53;;;;;;;12.68;83.84;102993.09;6209212;23;20000;-75
2022/07/08 03:21:03;;;;;;;11.65;3.50;;;;;;;12.73;83.41;102986.66;6212162;23;20016;-77
2022/07/08 03:23:29;;;;;;;14.50;3.38;;;;;;;12.66;82.71;102979.13;6210902;23;20007;-76
2022/07/08 03:25:54;;;;;;;8.63;2.90;;;;;;;12.69;82.94;102986.91;6212407;23;20001;-75
2022/07/08 03:28:19;;;;;;;10.60;3.13;;;;;;;12.62;83.44;102988.13;6212467;23;20005;-75
2022/07/08 03:30:47;;;;;;;13.07;3.75;;;;;;;12.62;83.30;102986.34;6211878;23;20426;-75
2022/07/08 03:33:12;;;;;;;10.07;3.03;;;;;;;12.61;83.50;102986.41;6212587;23;20063;-76
2022/07/08 03:35:39;;;;;;;5.70;2.72;;;;;;;12.53;83.52;102990.28;6212583;23;20078;-76
2022/07/08 03:38:04;;;;;;;8.10;3.15;;;;;;;12.50;83.15;102987.78;6211527;23;20337;-76
2022/07/08 03:43:14;;;;;;;12.82;3.20;;;;;;;12.42;83.41;102992.59;6212979;23;20071;-76
2022/07/08 03:45:39;;;;;;;12.30;3.28;;;;;;;12.41;83.81;102995.31;6212304;23;20008;-75
2022/07/08 03:48:06;;;;;;;9.40;3.17;;;;;;;12.40;83.72;102994.41;6213905;23;20087;-75
2022/07/08 03:50:32;;;;;;;9.77;3.22;;;;;;;12.40;83.78;102997.06;6213477;23;20004;-76
2022/07/08 03:52:58;;;;;;;9.73;3.00;;;;;;;12.40;83.85;102994.41;6213456;23;20051;-75
2022/07/08 03:55:25;;;;;;;12.82;3.20;;;;;;;12.31;84.28;102994.00;6214088;23;20030;-75
2022/07/08 03:57:51;;;;;;;9.65;3.10;;;;;;;12.32;84.19;102991.28;6213071;23;20005;-75
2022/07/08 04:00:22;;;;;;;13.07;3.28;;;;;;;12.31;85.00;102989.56;6211341;23;20005;-75
2022/07/08 04:02:48;;;;;;;11.20;3.30;;;;;;;12.34;84.42;102993.84;6213764;23;20019;-75
2022/07/08 04:05:13;;;;;;;8.98;3.30;;;;;;;12.30;84.58;102987.84;6213864;23;20009;-75
2022/07/08 04:07:39;;;;;;;14.32;3.75;;;;;;;12.43;85.13;102993.44;6213741;23;20426;-75
2022/07/08 04:10:06;;;;;;;9.13;3.35;;;;;;;12.97;83.67;102995.19;6212472;23;20312;-75
2022/07/08 04:12:33;;;;;;;11.00;3.35;;;;;;;13.72;79.90;102989.59;6212410;23;19997;-75
2022/07/08 04:14:59;;;;;;;10.35;3.08;;;;;;;14.41;76.64;102992.00;6186718;23;20066;-75
2022/07/08 04:17:24;;;;;;;10.95;3.05;;;;;;;15.51;72.85;102992.69;6213544;23;20083;-75
2022/07/08 04:19:49;;;;;;;7.32;2.90;;;;;;;16.48;69.15;102989.25;6212391;23;20007;-75
2022/07/08 04:22:15;;;;;;;9.90;2.80;;;;;;;16.38;68.16;102979.28;6212676;23;20000;-76
2022/07/08 04:24:43;;;;;;;9.60;2.83;;;;;;;16.77;66.58;102990.03;6185141;23;20087;-76
2022/07/08 04:27:08;;;;;;;7.95;3.10;;;;;;;16.89;65.41;102986.56;6211356;23;20005;-76
2022/07/08 04:29:34;;;;;;;14.13;3.40;;;;;;;16.94;64.99;102980.09;6211796;23;20011;-76
2022/07/08 04:31:59;;;;;;;10.93;3.08;;;;;;;16.06;67.44;102978.72;6211640;23;20011;-76
2022/07/08 04:34:26;;;;;;;9.55;3.55;;;;;;;15.42;69.92;103001.22;6211046;23;20004;-76
2022/07/08 04:36:51;;;;;;;7.70;3.05;;;;;;;15.27;70.95;103003.00;6211781;23;20084;-75
2022/07/08 04:39:17;;;;;;;12.43;3.60;;;;;;;14.95;72.10;103000.41;6211343;23;20028;-75
2022/07/08 04:41:42;;;;;;;11.32;3.10;;;;;;;14.97;72.52;103006.47;6184530;23;20007;-75
2022/07/08 04:44:08;;;;;;;9.75;3.50;;;;;;;14.74;72.88;103009.59;6184891;23;20034;-75
2022/07/08 04:46:35;;;;;;;14.10;3.72;;;;;;;14.61;73.63;103012.09;6209501;23;20013;-75
2022/07/08 04:49:01;;;;;;;12.15;3.58;;;;;;;14.38;74.49;103023.91;6210191;23;20453;-75
2022/07/08 04:51:27;;;;;;;11.02;3.88;;;;;;;14.26;75.02;103018.44;6184358;23;20005;-76
2022/07/08 04:53:53;;;;;;;13.25;4.25;;;;;;;13.92;76.14;103022.06;6211659;23;20051;-77
2022/07/08 04:56:19;;;;;;;11.02;4.38;;;;;;;13.80;76.95;103024.44;6210082;23;20005;-75
2022/07/08 04:58:45;;;;;;;13.05;4.30;;;;;;;13.76;77.71;103030.81;6211895;23;20004;-75
2022/07/08 05:01:10;;;;;;;10.65;4.00;;;;;;;13.67;78.09;103028.66;6186026;23;20313;-75
2022/07/08 05:03:35;;;;;;;10.73;4.22;;;;;;;13.65;78.20;103027.03;6210664;23;20296;-77
2022/07/08 05:06:01;;;;;;;9.90;4.20;;;;;;;13.59;78.67;103032.59;6212978;23;20014;-75
2022/07/08 05:08:26;;;;;;;11.90;4.75;;;;;;;13.52;79.15;103026.78;6210904;23;20004;-75
2022/07/08 05:10:52;;;;;;;10.85;4.35;;;;;;;13.57;79.45;103035.34;6184966;23;20079;-75
2022/07/08 05:13:17;;;;;;;16.27;4.45;;;;;;;13.61;79.19;103028.97;6209957;23;20036;-74
2022/07/08 05:15:42;;;;;;;10.15;4.43;;;;;;;13.57;80.17;103037.97;6211579;23;20012;-76
2022/07/08 05:18:08;;;;;;;10.43;4.47;;;;;;;13.59;81.28;103030.81;6185641;23;20008;-74
2022/07/08 05:20:33;;;;;;;14.63;4.43;;;;;;;13.70;80.29;103039.09;6184792;23;20004;-76
2022/07/08 05:23:01;;;;;;;11.15;4.10;;;;;;;13.72;79.90;103042.50;6184196;23;20054;-75
2022/07/08 05:25:26;;;;;;;10.70;3.83;;;;;;;13.74;79.54;103035.34;6210708;23;20008;-75
2022/07/08 05:27:51;;;;;;;11.20;4.30;;;;;;;13.79;79.32;103048.31;6210839;23;20032;-76
2022/07/08 05:30:17;;;;;;;11.68;4.43;;;;;;;13.80;79.70;103050.88;6210012;23;20005;-76
2022/07/08 05:32:42;;;;;;;11.27;4.53;;;;;;;13.85;80.09;103052.44;6185293;23;20005;-77
2022/07/08 05:35:08;;;;;;;19.80;5.43;;;;;;;13.89;80.73;103056.63;6184703;23;20319;-76
2022/07/08 05:37:37;;;;;;;14.18;5.60;;;;;;;13.80;80.22;103050.88;6208934;23;20008;-76
2022/07/08 05:40:06;;;;;;;17.02;5.25;;;;;;;13.90;79.75;103060.97;6167069;23;20076;-76
2022/07/08 05:42:35;;;;;;;17.23;6.07;;;;;;;13.95;79.96;103058.94;6154169;23;20005;-76
2022/07/08 05:45:01;;;;;;;15.43;5.68;;;;;;;14.08;79.48;103054.72;6153372;23;20509;-76
2022/07/08 05:47:26;;;;;;;16.55;5.85;;;;;;;14.11;79.10;103055.41;6180748;23;20001;-75
2022/07/08 05:49:52;;;;;;;15.10;5.47;;;;;;;14.18;78.67;103061.25;6180735;23;19997;-75
2022/07/08 05:52:22;;;;;;;15.77;5.50;;;;;;;14.23;79.12;103064.50;6180034;23;20012;-77
2022/07/08 05:54:48;;;;;;;17.50;5.50;;;;;;;14.25;79.11;103067.06;6154455;23;20080;-77
2022/07/08 05:57:14;;;;;;;10.10;4.93;;;;;;;14.33;79.43;103068.34;6181795;23;20005;-76
2022/07/08 05:59:41;;;;;;;12.30;5.55;;;;;;;14.40;79.29;103075.00;6179426;23;20339;-75
2022/07/08 06:02:06;;;;;;;15.73;4.55;;;;;;;14.46;78.54;103078.31;6181131;23;20044;-75
2022/07/08 06:04:31;;;;;;;14.65;4.30;;;;;;;14.56;78.41;103076.88;6180758;23;20382;-75
2022/07/08 06:06:58;;;;;;;13.05;3.83;;;;;;;14.52;77.47;103077.97;6180623;23;20069;-75
2022/07/08 06:09:24;;;;;;;11.68;3.53;;;;;;;14.57;77.13;103075.94;6180385;23;20051;-78
2022/07/08 06:11:50;;;;;;;10.55;3.22;;;;;;;14.63;77.10;103078.25;6154080;23;20013;-75
2022/07/08 06:14:19;;;;;;;11.20;3.50;;;;;;;14.71;77.34;103076.00;6154959;23;20019;-76
2022/07/08 06:16:47;;;;;;;10.52;3.50;;;;;;;14.75;76.81;103072.25;6181464;23;20004;-76
2022/07/08 06:19:13;;;;;;;11.15;2.65;;;;;;;14.80;76.54;103075.50;6180943;23;20001;-76
2022/07/08 06:21:42;;;;;;;14.77;3.10;;;;;;;14.85;76.67;103084.06;6125792;23;60254;-76
2022/07/08 06:24:08;;;;;;;8.32;2.55;;;;;;;14.89;76.37;103072.34;6154731;23;20005;-76
2022/07/08 06:26:38;;;;;;;12.77;2.67;;;;;;;14.97;76.68;103080.72;6179869;23;20005;-76
2022/07/08 06:29:04;;;;;;;12.57;2.45;;;;;;;15.01;76.01;103079.59;6180745;23;20001;-75
2022/07/08 06:31:30;;;;;;;12.80;3.10;;;;;;;15.08;76.38;103079.25;6179862;23;20001;-76
2022/07/08 06:33:58;;;;;;;9.80;2.95;;;;;;;15.15;76.45;103080.59;6179814;23;20007;-76
2022/07/08 06:36:24;;;;;;;14.57;2.55;;;;;;;15.22;76.18;103071.38;6180050;23;20005;-78
2022/07/08 06:38:50;;;;;;;12.52;2.92;;;;;;;15.28;75.25;103073.66;6180115;23;20005;-76
2022/07/08 06:41:19;;;;;;;12.40;3.28;;;;;;;15.31;74.70;103076.13;6179306;23;20509;-76
2022/07/08 06:43:47;;;;;;;13.95;3.28;;;;;;;15.32;74.88;103076.03;6180586;23;20001;-76
2022/07/08 06:46:13;;;;;;;14.73;3.13;;;;;;;15.45;74.61;103077.97;6153839;23;20005;-76
2022/07/08 06:48:39;;;;;;;15.98;2.75;;;;;;;15.53;74.69;103081.88;6178539;23;20060;-76
2022/07/08 06:51:05;;;;;;;14.38;2.83;;;;;;;15.53;72.71;103087.16;6177524;23;20220;-75
2022/07/08 06:54:34;;;;;;;9.05;2.20;;;;;;;15.63;74.26;103091.03;6178342;23;20009;-76
2022/07/08 06:56:20;;;;;;;8.45;2.33;;;;;;;15.69;74.06;103088.97;6178521;23;20009;-76
2022/07/08 06:58:45;;;;;;;9.23;2.35;;;;;;;15.79;73.30;103083.00;6179657;23;20032;-76
2022/07/08 07:01:11;;;;;;;9.20;2.42;;;;;;;15.87;72.88;103085.19;6153275;23;20771;-76
2022/07/08 07:03:38;;;;;;;8.68;2.33;;;;;;;15.91;72.51;103081.41;6179318;23;20017;-77
2022/07/08 07:06:04;;;;;;;10.45;2.05;;;;;;;16.06;71.75;103091.09;6153720;23;20012;-75
2022/07/08 07:08:29;;;;;;;10.18;2.50;;;;;;;16.29;71.22;103087.00;6178821;23;20005;-76
2022/07/08 07:10:54;;;;;;;12.07;2.40;;;;;;;16.44;68.94;103080.75;6178676;23;20001;-76
2022/07/08 07:13:20;;;;;;;11.43;2.63;;;;;;;16.82;68.92;103085.47;6180309;23;20001;-76
2022/07/08 07:15:45;;;;;;;12.05;1.95;;;;;;;16.97;67.46;103084.47;6180314;23;20005;-76
2022/07/08 07:18:11;;;;;;;10.32;2.15;;;;;;;17.36;67.36;103091.63;6155080;23;20088;-76
2022/07/08 07:20:36;;;;;;;11.20;2.45;;;;;;;17.51;65.87;103082.59;6180539;23;20092;-77
2022/07/08 07:23:01;;;;;;;11.85;2.20;;;;;;;17.62;64.96;103081.03;6180420;23;20011;-78
2022/07/08 07:25:26;;;;;;;10.88;2.50;;;;;;;18.09;65.12;103083.94;6153297;23;20052;-75
2022/07/08 07:27:52;;;;;;;7.18;1.75;;;;;;;18.15;63.08;103086.19;6180866;23;20013;-76
2022/07/08 07:30:19;;;;;;;9.25;2.15;;;;;;;18.58;62.74;103083.13;6179590;23;20024;-76
2022/07/08 07:32:45;;;;;;;11.80;2.22;;;;;;;18.86;61.73;103086.50;6181280;23;20000;-79
2022/07/08 07:35:13;;;;;;;8.13;1.75;;;;;;;19.12;60.36;103082.72;6154960;23;20140;-79
2022/07/08 07:37:38;;;;;;;7.53;2.17;;;;;;;19.26;60.05;103074.56;6179228;23;20001;-76
2022/07/08 07:40:05;;;;;;;9.75;2.35;;;;;;;19.24;59.16;103075.63;6179445;23;20076;-76
2022/07/08 07:42:31;;;;;;;8.93;1.95;;;;;;;19.51;59.06;103084.19;6179567;23;20012;-76
2022/07/08 07:44:56;;;;;;;8.23;1.90;;;;;;;19.56;58.26;103082.06;6160025;23;22258;-76
2022/07/08 07:47:25;;;;;;;9.43;2.10;;;;;;;19.69;56.82;103077.50;6124983;23;20029;-77
2022/07/08 07:49:50;;;;;;;7.22;1.80;;;;;;;20.11;56.85;103076.94;6151079;23;20363;-76
2022/07/08 07:52:19;;;;;;;9.65;1.85;;;;;;;20.06;55.76;103081.81;6149998;23;20006;-76
2022/07/08 07:54:44;;;;;;;11.25;2.22;;;;;;;19.68;55.71;103078.47;6151296;23;20001;-76
2022/07/08 07:57:10;;;;;;;10.57;2.28;;;;;;;20.01;56.97;103076.78;6149866;23;20005;-76
2022/07/08 07:59:36;;;;;;;9.43;1.80;;;;;;;19.93;55.90;103071.19;6150495;23;20005;-76
2022/07/08 08:02:02;;;;;;;6.90;2.10;;;;;;;20.25;56.19;103080.22;6124816;23;20013;-76
2022/07/08 08:04:27;;;;;;;9.48;2.03;;;;;;;20.51;55.40;103069.28;6149879;23;20420;-75
2022/07/08 08:06:52;;;;;;;12.75;2.20;;;;;;;20.62;55.68;103067.44;6125348;23;20041;-76
2022/07/08 08:09:18;;;;;;;8.23;1.70;;;;;;;20.89;55.66;103063.50;6151681;23;20001;-74
2022/07/08 08:11:43;;;;;;;13.88;2.75;;;;;;;20.82;54.68;103076.53;6152330;23;20004;-75
2022/07/08 08:14:09;;;;;;;9.43;2.13;;;;;;;20.60;54.41;103077.41;6153778;23;20001;-75
2022/07/08 08:16:34;;;;;;;6.57;2.10;;;;;;;20.36;55.48;103076.69;6152595;23;20001;-75
2022/07/08 08:19:01;;;;;;;9.95;1.85;;;;;;;20.59;57.20;103078.38;6152626;23;20006;-76
2022/07/08 08:21:29;;;;;;;10.30;2.50;;;;;;;20.63;54.91;103081.66;6153010;23;20001;-75
2022/07/08 08:23:55;;;;;;;9.45;2.17;;;;;;;20.81;54.39;103076.63;6152971;23;20432;-75
2022/07/08 08:26:22;;;;;;;9.73;2.13;;;;;;;20.61;54.94;103076.44;6151840;23;20063;-75
2022/07/08 08:28:48;;;;;;;13.70;2.72;;;;;;;20.83;54.19;103085.41;6151901;23;20013;-76
2022/07/08 08:31:13;;;;;;;10.82;2.38;;;;;;;20.52;54.23;103079.88;6152161;23;20009;-76
2022/07/08 08:33:38;;;;;;;9.20;1.80;;;;;;;20.46;56.07;103082.19;6151761;23;20052;-76
2022/07/08 08:36:04;;;;;;;9.55;2.00;;;;;;;20.43;55.24;103083.28;6152657;23;20001;-76
2022/07/08 08:38:31;;;;;;;7.80;2.13;;;;;;;20.58;54.00;103084.72;6126205;23;20217;-76
2022/07/08 08:40:59;;;;;;;12.63;2.30;;;;;;;21.06;53.78;103087.03;6152030;23;20016;-75
2022/07/08 08:43:25;;;;;;;9.40;2.30;;;;;;;21.00;52.91;103081.31;6151843;23;20002;-75
2022/07/08 08:45:52;;;;;;;7.50;2.10;;;;;;;21.12;52.23;103081.16;6152537;23;20005;-76
2022/07/08 08:48:22;;;;;;;10.15;2.40;;;;;;;21.33;53.06;103080.38;6100564;23;20005;-75
2022/07/08 08:50:55;;;;;;;11.57;2.47;;;;;;;20.78;52.23;103077.72;6151139;23;20005;-76
2022/07/08 08:53:41;;;;;;;6.97;2.40;;;;;;;21.18;53.38;103072.59;6151376;23;20331;-75
2022/07/08 08:56:15;;;;;;;11.90;2.15;;;;;;;21.43;53.36;103067.91;6152315;23;20006;-76
2022/07/08 08:58:49;;;;;;;8.65;2.20;;;;;;;21.75;50.86;103073.19;6126075;23;20005;-75
2022/07/08 09:01:18;;;;;;;9.43;2.20;;;;;;;21.79;51.27;103064.75;6152061;23;20005;-75
2022/07/08 09:03:48;;;;;;;11.20;2.80;;;;;;;21.82;50.24;103069.84;6152333;23;20052;-76
2022/07/08 09:06:18;;;;;;;10.23;2.22;;;;;;;21.81;49.71;103056.56;6126197;23;20018;-75
2022/07/08 09:08:43;;;;;;;11.93;2.38;;;;;;;21.62;49.94;103057.34;6149915;23;20017;-76
2022/07/08 09:11:08;;;;;;;8.65;2.10;;;;;;;21.86;51.91;103060.56;6152326;23;20060;-75
2022/07/08 09:13:34;;;;;;;9.93;2.47;;;;;;;22.23;49.88;103057.34;6151510;23;20032;-76
2022/07/08 09:15:59;;;;;;;8.77;2.03;;;;;;;22.43;49.58;103051.09;6151362;23;20002;-75
2022/07/08 09:18:35;;;;;;;9.20;2.00;;;;;;;22.52;49.19;103057.47;6151687;23;20006;-75
2022/07/08 09:21:03;;;;;;;7.65;2.13;;;;;;;22.51;49.48;103053.94;6152909;23;20012;-76
2022/07/08 09:23:32;;;;;;;8.43;2.00;;;;;;;22.89;49.27;103051.47;6125671;23;20089;-75
2022/07/08 09:26:00;;;;;;;8.13;1.83;;;;;;;22.89;49.08;103054.16;6152398;23;20059;-76
2022/07/08 09:28:32;;;;;;;10.32;2.55;;;;;;;22.91;48.16;103058.41;6151767;23;20005;-76
2022/07/08 09:30:59;;;;;;;7.50;2.08;;;;;;;22.92;49.26;103057.41;6151019;23;20012;-75
2022/07/08 09:33:27;;;;;;;11.80;2.60;;;;;;;22.75;48.54;103058.03;6151954;23;20431;-75
2022/07/08 09:35:55;;;;;;;9.43;2.13;;;;;;;22.80;48.77;103055.78;6151551;23;20006;-75
2022/07/08 09:38:22;;;;;;;9.65;2.08;;;;;;;22.71;49.04;103057.47;6151445;23;20416;-75
2022/07/08 09:41:03;;;;;;;9.38;2.33;;;;;;;22.68;49.01;103049.69;6152833;23;20001;-76
2022/07/08 09:43:29;;;;;;;7.20;2.10;;;;;;;22.42;48.89;103051.22;6151184;23;20336;-76
2022/07/08 09:46:03;;;;;;;10.57;2.08;;;;;;;22.65;49.22;103046.44;6152673;23;20331;-75
2022/07/08 09:48:29;;;;;;;8.00;2.10;;;;;;;22.72;47.98;103047.59;6151459;23;20008;-76
2022/07/08 09:50:54;;;;;;;7.60;2.03;;;;;;;22.70;48.94;103052.25;6151617;23;20001;-76
2022/07/08 09:53:25;;;;;;;7.97;2.08;;;;;;;22.48;49.76;103064.94;6151385;23;20029;-75
2022/07/08 09:55:53;;;;;;;9.82;2.10;;;;;;;22.62;48.87;103047.56;6151847;23;20088;-75
2022/07/08 09:58:23;;;;;;;8.48;2.50;;;;;;;22.80;48.90;103053.09;6150170;23;20002;-75
2022/07/08 10:00:51;;;;;;;8.88;2.33;;;;;;;22.54;49.01;103060.00;6151575;23;20001;-75
2022/07/08 10:03:21;;;;;;;10.75;2.30;;;;;;;22.59;48.62;103049.69;6150336;23;20021;-75
2022/07/08 10:05:47;;;;;;;7.50;1.85;;;;;;;22.71;48.97;103056.63;6150654;23;20012;-75
2022/07/08 10:08:13;;;;;;;10.60;1.85;;;;;;;22.83;48.69;103060.09;6151904;23;20010;-76
2022/07/08 10:10:40;;;;;;;5.75;1.80;;;;;;;22.73;49.11;103055.50;6150832;23;20005;-76
2022/07/08 10:13:06;;;;;;;6.82;2.05;;;;;;;22.74;48.34;103051.81;6150962;23;20036;-76
2022/07/08 10:15:33;;;;;;;9.57;2.28;;;;;;;22.94;49.69;103058.09;6149822;23;20005;-76
2022/07/08 10:18:21;;;;;;;8.98;2.22;;;;;;;23.11;50.07;103062.75;6150704;23;20002;-76
2022/07/08 10:20:53;;;;;;;9.85;2.05;;;;;;;23.22;48.87;103063.63;6125698;23;20012;-76
2022/07/08 10:23:24;;;;;;;7.07;1.90;;;;;;;23.23;48.43;103063.50;6125210;23;20015;-75
2022/07/08 10:25:52;;;;;;;15.15;2.13;;;;;;;23.10;48.05;103058.38;6151506;23;20002;-76
2022/07/08 10:28:17;;;;;;;7.57;2.10;;;;;;;23.05;47.91;103060.66;6150837;23;20001;-76
2022/07/08 10:30:48;;;;;;;8.27;2.40;;;;;;;23.41;49.34;103061.75;6151850;23;20013;-76
2022/07/08 10:33:25;;;;;;;9.32;2.20;;;;;;;23.41;46.94;103058.22;6151680;23;20009;-76
2022/07/08 10:36:20;;;;;;;6.20;1.77;;;;;;;23.79;47.86;103049.25;6152009;23;20052;-76
2022/07/08 10:38:48;;;;;;;7.88;2.30;;;;;;;23.92;48.58;103048.91;6149046;23;20084;-76
2022/07/08 10:41:26;;;;;;;5.03;2.08;;;;;;;24.06;48.57;103045.78;6151301;23;20005;-76
2022/07/08 10:43:53;;;;;;;6.53;1.75;;;;;;;24.08;45.93;103043.78;6151353;23;20012;-76
2022/07/08 10:46:24;;;;;;;8.02;2.00;;;;;;;24.14;46.42;103048.56;6150321;23;20080;-76
2022/07/08 10:48:52;;;;;;;6.80;1.83;;;;;;;24.83;46.84;103031.88;6151483;23;20456;-76
2022/07/08 10:51:20;;;;;;;7.47;1.88;;;;;;;24.81;45.85;103033.84;6150524;23;20005;-76
2022/07/08 10:53:49;;;;;;;8.60;2.05;;;;;;;24.89;46.33;103033.94;6150854;23;20001;-74
2022/07/08 10:56:53;;;;;;;8.77;2.20;;;;;;;25.16;45.77;103032.16;6151727;23;20461;-75
2022/07/08 10:59:21;;;;;;;8.88;1.80;;;;;;;25.33;44.77;103034.00;6150118;23;20033;-77
2022/07/08 11:01:59;;;;;;;6.47;1.65;;;;;;;25.57;44.70;103038.69;6150480;23;20008;-76
2022/07/08 11:04:34;;;;;;;5.70;1.60;;;;;;;25.47;42.85;103046.03;6149370;23;20018;-76
2022/07/08 11:09:45;;;;;;;6.75;1.70;;;;;;;24.94;43.32;103042.41;6152803;23;20198;-76
2022/07/08 11:12:20;;;;;;;6.20;1.65;;;;;;;25.07;44.59;103036.66;6130965;23;20034;-75
2022/07/08 11:14:50;;;;;;;5.63;1.60;;;;;;;25.19;43.75;103037.25;6151123;23;20001;-77
2022/07/08 11:17:23;;;;;;;7.53;1.85;;;;;;;25.22;44.90;103036.97;6126884;23;20420;-75
2022/07/08 11:19:51;;;;;;;6.05;1.65;;;;;;;25.17;44.77;103039.25;6151136;23;20080;-77
2022/07/08 11:22:22;;;;;;;6.25;1.60;;;;;;;25.45;45.15;103035.44;6149935;23;20013;-77
2022/07/08 11:24:47;;;;;;;5.55;1.45;;;;;;;25.62;44.66;103031.00;6125397;23;20018;-77
2022/07/08 11:27:13;;;;;;;4.15;1.35;;;;;;;25.68;43.98;103034.94;6152137;23;20014;-78